sensor_id;sensor_type;location;lat;lon;timestamp;P1;durP1;ratioP1;P2;durP2;ratioP2
45694;SDS011;31408;45.468;9.124;2024-03-22T00:00:43;34.38;;;19.55;;
45694;SDS011;31408;45.468;9.124;2024-03-22T00:03:14;35.85;;;20.00;;
45694;SDS011;31408;45.468;9.124;2024-03-22T00:05:39;39.08;;;20.67;;
45694;SDS011;31408;45.468;9.124;2024-03-22T00:08:04;50.20;;;25.13;;
45694;SDS011;31408;45.468;9.124;2024-03-22T00:10:30;50.65;;;26.75;;
45694;SDS011;31408;45.468;9.124;2024-03-22T00:12:55;54.30;;;26.08;;
45694;SDS011;31408;45.468;9.124;2024-03-22T00:15:20;54.88;;;32.28;;
45694;SDS011;31408;45.468;9.124;2024-03-22T00:17:45;54.13;;;29.67;;
45694;SDS011;31408;45.468;9.124;2024-03-22T00:20:11;56.63;;;31.20;;
45694;SDS011;31408;45.468;9.124;2024-03-22T00:22:36;59.30;;;32.45;;
45694;SDS011;31408;45.468;9.124;2024-03-22T00:25:01;61.20;;;33.33;;
45694;SDS011;31408;45.468;9.124;2024-03-22T00:27:27;62.58;;;33.47;;
45694;SDS011;31408;45.468;9.124;2024-03-22T00:29:52;63.13;;;31.92;;
45694;SDS011;31408;45.468;9.124;2024-03-22T00:32:18;56.05;;;30.65;;
45694;SDS011;31408;45.468;9.124;2024-03-22T00:34:43;55.72;;;31.88;;
45694;SDS011;31408;45.468;9.124;2024-03-22T00:37:08;65.05;;;33.88;;
45694;SDS011;31408;45.468;9.124;2024-03-22T00:39:34;59.22;;;32.72;;
45694;SDS011;31408;45.468;9.124;2024-03-22T00:42:00;64.72;;;36.10;;
45694;SDS011;31408;45.468;9.124;2024-03-22T00:44:26;62.83;;;34.83;;
45694;SDS011;31408;45.468;9.124;2024-03-22T00:46:51;63.05;;;34.42;;
45694;SDS011;31408;45.468;9.124;2024-03-22T00:49:16;69.45;;;38.53;;
45694;SDS011;31408;45.468;9.124;2024-03-22T00:51:42;67.10;;;36.35;;
45694;SDS011;31408;45.468;9.124;2024-03-22T00:54:09;61.90;;;35.45;;
45694;SDS011;31408;45.468;9.124;2024-03-22T00:56:34;73.65;;;38.05;;
45694;SDS011;31408;45.468;9.124;2024-03-22T00:58:59;67.68;;;36.47;;
45694;SDS011;31408;45.468;9.124;2024-03-22T01:01:25;69.65;;;37.15;;
45694;SDS011;31408;45.468;9.124;2024-03-22T01:03:50;60.45;;;36.22;;
45694;SDS011;31408;45.468;9.124;2024-03-22T01:06:15;67.75;;;36.63;;
45694;SDS011;31408;45.468;9.124;2024-03-22T01:08:41;73.05;;;40.13;;
45694;SDS011;31408;45.468;9.124;2024-03-22T01:11:06;66.47;;;36.47;;
45694;SDS011;31408;45.468;9.124;2024-03-22T01:13:31;66.45;;;36.70;;
45694;SDS011;31408;45.468;9.124;2024-03-22T01:15:57;71.70;;;38.55;;
45694;SDS011;31408;45.468;9.124;2024-03-22T01:18:22;67.05;;;38.28;;
45694;SDS011;31408;45.468;9.124;2024-03-22T01:20:47;66.65;;;36.75;;
45694;SDS011;31408;45.468;9.124;2024-03-22T01:23:12;65.13;;;37.22;;
45694;SDS011;31408;45.468;9.124;2024-03-22T01:25:38;66.03;;;37.65;;
45694;SDS011;31408;45.468;9.124;2024-03-22T01:28:03;79.80;;;40.13;;
45694;SDS011;31408;45.468;9.124;2024-03-22T01:30:29;68.40;;;39.25;;
45694;SDS011;31408;45.468;9.124;2024-03-22T01:32:55;76.55;;;39.40;;
45694;SDS011;31408;45.468;9.124;2024-03-22T01:35:20;71.40;;;38.17;;
45694;SDS011;31408;45.468;9.124;2024-03-22T01:37:45;75.50;;;40.88;;
45694;SDS011;31408;45.468;9.124;2024-03-22T01:40:11;75.72;;;39.80;;
45694;SDS011;31408;45.468;9.124;2024-03-22T01:42:36;71.35;;;37.90;;
45694;SDS011;31408;45.468;9.124;2024-03-22T01:45:02;72.60;;;40.45;;
45694;SDS011;31408;45.468;9.124;2024-03-22T01:47:28;68.78;;;38.97;;
45694;SDS011;31408;45.468;9.124;2024-03-22T01:49:54;74.38;;;37.80;;
45694;SDS011;31408;45.468;9.124;2024-03-22T01:52:20;73.57;;;38.78;;
45694;SDS011;31408;45.468;9.124;2024-03-22T01:54:45;69.68;;;37.50;;
45694;SDS011;31408;45.468;9.124;2024-03-22T01:57:10;72.30;;;36.95;;
45694;SDS011;31408;45.468;9.124;2024-03-22T01:59:36;68.88;;;37.45;;
45694;SDS011;31408;45.468;9.124;2024-03-22T02:02:01;73.35;;;37.13;;
45694;SDS011;31408;45.468;9.124;2024-03-22T02:04:27;68.97;;;37.58;;
45694;SDS011;31408;45.468;9.124;2024-03-22T02:06:53;78.22;;;41.00;;
45694;SDS011;31408;45.468;9.124;2024-03-22T02:09:18;80.90;;;39.00;;
45694;SDS011;31408;45.468;9.124;2024-03-22T02:11:46;70.03;;;38.58;;
45694;SDS011;31408;45.468;9.124;2024-03-22T02:14:11;76.82;;;39.95;;
45694;SDS011;31408;45.468;9.124;2024-03-22T02:16:36;78.90;;;40.30;;
45694;SDS011;31408;45.468;9.124;2024-03-22T02:19:01;76.90;;;37.72;;
45694;SDS011;31408;45.468;9.124;2024-03-22T02:21:27;69.47;;;37.10;;
45694;SDS011;31408;45.468;9.124;2024-03-22T02:23:52;71.25;;;38.10;;
45694;SDS011;31408;45.468;9.124;2024-03-22T02:26:17;70.35;;;37.97;;
45694;SDS011;31408;45.468;9.124;2024-03-22T02:28:42;74.50;;;38.30;;
45694;SDS011;31408;45.468;9.124;2024-03-22T02:31:08;75.47;;;39.30;;
45694;SDS011;31408;45.468;9.124;2024-03-22T02:33:33;76.78;;;41.22;;
45694;SDS011;31408;45.468;9.124;2024-03-22T02:35:58;74.10;;;37.47;;
45694;SDS011;31408;45.468;9.124;2024-03-22T02:38:23;76.80;;;40.53;;
45694;SDS011;31408;45.468;9.124;2024-03-22T02:40:50;76.60;;;39.65;;
45694;SDS011;31408;45.468;9.124;2024-03-22T02:43:16;74.43;;;38.80;;
45694;SDS011;31408;45.468;9.124;2024-03-22T02:45:43;74.55;;;39.53;;
45694;SDS011;31408;45.468;9.124;2024-03-22T02:48:09;76.03;;;41.20;;
45694;SDS011;31408;45.468;9.124;2024-03-22T02:50:34;73.15;;;40.38;;
45694;SDS011;31408;45.468;9.124;2024-03-22T02:53:00;76.00;;;40.67;;
45694;SDS011;31408;45.468;9.124;2024-03-22T02:55:25;67.55;;;36.05;;
45694;SDS011;31408;45.468;9.124;2024-03-22T02:57:50;74.93;;;39.47;;
45694;SDS011;31408;45.468;9.124;2024-03-22T03:00:16;72.88;;;42.13;;
45694;SDS011;31408;45.468;9.124;2024-03-22T03:02:41;78.85;;;42.92;;
45694;SDS011;31408;45.468;9.124;2024-03-22T03:05:07;78.85;;;37.35;;
45694;SDS011;31408;45.468;9.124;2024-03-22T03:07:32;83.13;;;43.70;;
45694;SDS011;31408;45.468;9.124;2024-03-22T03:09:57;71.97;;;37.17;;
45694;SDS011;31408;45.468;9.124;2024-03-22T03:12:23;71.95;;;40.70;;
45694;SDS011;31408;45.468;9.124;2024-03-22T03:14:48;72.80;;;39.05;;
45694;SDS011;31408;45.468;9.124;2024-03-22T03:17:13;69.15;;;38.38;;
45694;SDS011;31408;45.468;9.124;2024-03-22T03:19:39;72.95;;;39.85;;
45694;SDS011;31408;45.468;9.124;2024-03-22T03:22:04;75.28;;;40.70;;
45694;SDS011;31408;45.468;9.124;2024-03-22T03:24:29;79.85;;;40.40;;
45694;SDS011;31408;45.468;9.124;2024-03-22T03:26:54;70.00;;;35.97;;
45694;SDS011;31408;45.468;9.124;2024-03-22T03:29:20;71.15;;;38.95;;
45694;SDS011;31408;45.468;9.124;2024-03-22T03:31:45;78.80;;;40.40;;
45694;SDS011;31408;45.468;9.124;2024-03-22T03:34:10;78.15;;;39.53;;
45694;SDS011;31408;45.468;9.124;2024-03-22T03:36:36;74.47;;;38.90;;
45694;SDS011;31408;45.468;9.124;2024-03-22T03:39:01;72.50;;;40.63;;
45694;SDS011;31408;45.468;9.124;2024-03-22T03:41:27;69.72;;;38.63;;
45694;SDS011;31408;45.468;9.124;2024-03-22T03:43:52;74.43;;;38.78;;
45694;SDS011;31408;45.468;9.124;2024-03-22T03:46:17;71.35;;;38.60;;
45694;SDS011;31408;45.468;9.124;2024-03-22T03:48:42;70.22;;;41.13;;
45694;SDS011;31408;45.468;9.124;2024-03-22T03:51:08;71.07;;;40.92;;
45694;SDS011;31408;45.468;9.124;2024-03-22T03:53:33;68.35;;;38.25;;
45694;SDS011;31408;45.468;9.124;2024-03-22T03:55:58;70.72;;;39.45;;
45694;SDS011;31408;45.468;9.124;2024-03-22T03:58:24;76.00;;;38.63;;
45694;SDS011;31408;45.468;9.124;2024-03-22T04:00:49;72.15;;;38.40;;
45694;SDS011;31408;45.468;9.124;2024-03-22T04:03:14;69.57;;;38.00;;
45694;SDS011;31408;45.468;9.124;2024-03-22T04:05:40;71.13;;;40.53;;
45694;SDS011;31408;45.468;9.124;2024-03-22T04:08:05;77.10;;;41.22;;
45694;SDS011;31408;45.468;9.124;2024-03-22T04:10:30;65.00;;;38.03;;
45694;SDS011;31408;45.468;9.124;2024-03-22T04:12:55;70.20;;;40.22;;
45694;SDS011;31408;45.468;9.124;2024-03-22T04:15:21;73.47;;;37.25;;
45694;SDS011;31408;45.468;9.124;2024-03-22T04:17:46;71.03;;;38.80;;
45694;SDS011;31408;45.468;9.124;2024-03-22T04:20:11;80.18;;;41.58;;
45694;SDS011;31408;45.468;9.124;2024-03-22T04:22:37;69.20;;;38.03;;
45694;SDS011;31408;45.468;9.124;2024-03-22T04:25:02;72.43;;;40.65;;
45694;SDS011;31408;45.468;9.124;2024-03-22T04:27:27;85.10;;;42.35;;
45694;SDS011;31408;45.468;9.124;2024-03-22T04:29:53;78.45;;;38.88;;
45694;SDS011;31408;45.468;9.124;2024-03-22T04:32:18;77.97;;;40.38;;
45694;SDS011;31408;45.468;9.124;2024-03-22T04:34:43;73.57;;;39.78;;
45694;SDS011;31408;45.468;9.124;2024-03-22T04:37:09;68.68;;;38.17;;
45694;SDS011;31408;45.468;9.124;2024-03-22T04:39:38;77.90;;;39.40;;
45694;SDS011;31408;45.468;9.124;2024-03-22T04:42:08;58.38;;;36.25;;
45694;SDS011;31408;45.468;9.124;2024-03-22T04:44:34;73.75;;;39.70;;
45694;SDS011;31408;45.468;9.124;2024-03-22T04:46:59;72.88;;;40.65;;
45694;SDS011;31408;45.468;9.124;2024-03-22T04:49:24;81.90;;;43.10;;
45694;SDS011;31408;45.468;9.124;2024-03-22T04:51:50;74.45;;;40.17;;
45694;SDS011;31408;45.468;9.124;2024-03-22T04:54:15;74.63;;;40.40;;
45694;SDS011;31408;45.468;9.124;2024-03-22T04:56:40;84.30;;;41.95;;
45694;SDS011;31408;45.468;9.124;2024-03-22T04:59:05;75.28;;;38.88;;
45694;SDS011;31408;45.468;9.124;2024-03-22T05:01:31;68.93;;;40.05;;
45694;SDS011;31408;45.468;9.124;2024-03-22T05:03:56;75.32;;;39.53;;
45694;SDS011;31408;45.468;9.124;2024-03-22T05:06:21;78.53;;;38.53;;
45694;SDS011;31408;45.468;9.124;2024-03-22T05:08:46;82.85;;;42.38;;
45694;SDS011;31408;45.468;9.124;2024-03-22T05:11:12;78.22;;;42.13;;
45694;SDS011;31408;45.468;9.124;2024-03-22T05:13:37;75.82;;;39.75;;
45694;SDS011;31408;45.468;9.124;2024-03-22T05:16:04;79.35;;;41.20;;
45694;SDS011;31408;45.468;9.124;2024-03-22T05:18:30;86.60;;;42.58;;
45694;SDS011;31408;45.468;9.124;2024-03-22T05:20:55;78.00;;;38.97;;
45694;SDS011;31408;45.468;9.124;2024-03-22T05:23:20;82.70;;;42.60;;
45694;SDS011;31408;45.468;9.124;2024-03-22T05:25:45;77.13;;;41.78;;
45694;SDS011;31408;45.468;9.124;2024-03-22T05:28:11;85.50;;;44.55;;
45694;SDS011;31408;45.468;9.124;2024-03-22T05:30:36;71.75;;;37.55;;
45694;SDS011;31408;45.468;9.124;2024-03-22T05:33:02;80.60;;;41.85;;
45694;SDS011;31408;45.468;9.124;2024-03-22T05:35:27;82.10;;;40.53;;
45694;SDS011;31408;45.468;9.124;2024-03-22T05:37:52;81.32;;;42.83;;
45694;SDS011;31408;45.468;9.124;2024-03-22T05:40:17;79.03;;;39.92;;
45694;SDS011;31408;45.468;9.124;2024-03-22T05:42:43;74.35;;;40.65;;
45694;SDS011;31408;45.468;9.124;2024-03-22T05:45:08;77.70;;;40.15;;
45694;SDS011;31408;45.468;9.124;2024-03-22T05:47:33;75.45;;;42.53;;
45694;SDS011;31408;45.468;9.124;2024-03-22T05:49:59;81.63;;;42.03;;
45694;SDS011;31408;45.468;9.124;2024-03-22T05:52:29;84.45;;;41.47;;
45694;SDS011;31408;45.468;9.124;2024-03-22T05:54:55;85.38;;;40.45;;
45694;SDS011;31408;45.468;9.124;2024-03-22T05:57:20;76.68;;;41.28;;
45694;SDS011;31408;45.468;9.124;2024-03-22T05:59:46;79.38;;;41.97;;
45694;SDS011;31408;45.468;9.124;2024-03-22T06:02:11;73.75;;;39.92;;
45694;SDS011;31408;45.468;9.124;2024-03-22T06:04:37;86.80;;;39.83;;
45694;SDS011;31408;45.468;9.124;2024-03-22T06:07:02;83.05;;;42.25;;
45694;SDS011;31408;45.468;9.124;2024-03-22T06:09:29;75.25;;;42.10;;
45694;SDS011;31408;45.468;9.124;2024-03-22T06:12:14;73.38;;;40.15;;
45694;SDS011;31408;45.468;9.124;2024-03-22T06:14:42;78.43;;;40.95;;
45694;SDS011;31408;45.468;9.124;2024-03-22T06:17:08;67.32;;;38.78;;
45694;SDS011;31408;45.468;9.124;2024-03-22T06:19:33;76.55;;;36.25;;
45694;SDS011;31408;45.468;9.124;2024-03-22T06:22:03;69.45;;;36.08;;
45694;SDS011;31408;45.468;9.124;2024-03-22T06:24:29;85.47;;;39.13;;
45694;SDS011;31408;45.468;9.124;2024-03-22T06:26:54;80.57;;;38.15;;
45694;SDS011;31408;45.468;9.124;2024-03-22T06:29:19;63.75;;;36.53;;
45694;SDS011;31408;45.468;9.124;2024-03-22T06:31:46;68.20;;;37.10;;
45694;SDS011;31408;45.468;9.124;2024-03-22T06:34:11;69.95;;;36.30;;
45694;SDS011;31408;45.468;9.124;2024-03-22T06:36:36;74.43;;;40.17;;
45694;SDS011;31408;45.468;9.124;2024-03-22T06:39:01;69.25;;;37.75;;
45694;SDS011;31408;45.468;9.124;2024-03-22T06:41:31;71.03;;;40.58;;
45694;SDS011;31408;45.468;9.124;2024-03-22T06:43:56;73.57;;;39.75;;
45694;SDS011;31408;45.468;9.124;2024-03-22T06:46:22;68.25;;;37.15;;
45694;SDS011;31408;45.468;9.124;2024-03-22T06:48:48;76.90;;;39.90;;
45694;SDS011;31408;45.468;9.124;2024-03-22T06:51:13;70.82;;;35.72;;
45694;SDS011;31408;45.468;9.124;2024-03-22T06:53:38;69.25;;;35.28;;
45694;SDS011;31408;45.468;9.124;2024-03-22T06:56:04;68.30;;;37.55;;
45694;SDS011;31408;45.468;9.124;2024-03-22T06:58:29;67.20;;;36.90;;
45694;SDS011;31408;45.468;9.124;2024-03-22T07:00:55;68.75;;;37.90;;
45694;SDS011;31408;45.468;9.124;2024-03-22T07:03:20;68.47;;;36.40;;
45694;SDS011;31408;45.468;9.124;2024-03-22T07:05:46;72.13;;;38.25;;
45694;SDS011;31408;45.468;9.124;2024-03-22T07:08:12;69.55;;;36.88;;
45694;SDS011;31408;45.468;9.124;2024-03-22T07:10:40;70.38;;;34.78;;
45694;SDS011;31408;45.468;9.124;2024-03-22T07:13:06;70.20;;;37.30;;
45694;SDS011;31408;45.468;9.124;2024-03-22T07:15:31;73.50;;;35.38;;
45694;SDS011;31408;45.468;9.124;2024-03-22T07:17:57;56.35;;;32.05;;
45694;SDS011;31408;45.468;9.124;2024-03-22T07:20:23;63.78;;;33.33;;
45694;SDS011;31408;45.468;9.124;2024-03-22T07:22:48;57.50;;;32.38;;
45694;SDS011;31408;45.468;9.124;2024-03-22T07:25:13;62.95;;;35.38;;
45694;SDS011;31408;45.468;9.124;2024-03-22T07:27:39;72.15;;;33.22;;
45694;SDS011;31408;45.468;9.124;2024-03-22T07:30:04;58.63;;;31.35;;
45694;SDS011;31408;45.468;9.124;2024-03-22T07:32:30;58.95;;;32.63;;
45694;SDS011;31408;45.468;9.124;2024-03-22T07:34:55;55.53;;;31.48;;
45694;SDS011;31408;45.468;9.124;2024-03-22T07:37:20;54.00;;;32.03;;
45694;SDS011;31408;45.468;9.124;2024-03-22T07:39:46;53.85;;;28.45;;
45694;SDS011;31408;45.468;9.124;2024-03-22T07:42:11;56.20;;;30.20;;
45694;SDS011;31408;45.468;9.124;2024-03-22T07:44:36;52.95;;;29.65;;
45694;SDS011;31408;45.468;9.124;2024-03-22T07:47:01;50.40;;;28.05;;
45694;SDS011;31408;45.468;9.124;2024-03-22T07:49:27;53.65;;;29.67;;
45694;SDS011;31408;45.468;9.124;2024-03-22T07:51:52;48.58;;;25.50;;
45694;SDS011;31408;45.468;9.124;2024-03-22T07:54:18;52.00;;;26.95;;
45694;SDS011;31408;45.468;9.124;2024-03-22T07:56:43;53.22;;;26.85;;
45694;SDS011;31408;45.468;9.124;2024-03-22T07:59:08;59.58;;;27.70;;
45694;SDS011;31408;45.468;9.124;2024-03-22T08:01:34;57.17;;;29.27;;
45694;SDS011;31408;45.468;9.124;2024-03-22T08:03:59;88.22;;;29.92;;
45694;SDS011;31408;45.468;9.124;2024-03-22T08:06:24;43.30;;;23.88;;
45694;SDS011;31408;45.468;9.124;2024-03-22T08:08:50;47.67;;;25.58;;
45694;SDS011;31408;45.468;9.124;2024-03-22T08:11:15;45.30;;;26.30;;
45694;SDS011;31408;45.468;9.124;2024-03-22T08:13:40;51.13;;;25.10;;
45694;SDS011;31408;45.468;9.124;2024-03-22T08:16:05;50.05;;;24.88;;
45694;SDS011;31408;45.468;9.124;2024-03-22T08:18:32;41.92;;;23.42;;
45694;SDS011;31408;45.468;9.124;2024-03-22T08:20:58;46.05;;;24.20;;
45694;SDS011;31408;45.468;9.124;2024-03-22T08:23:24;49.08;;;25.23;;
45694;SDS011;31408;45.468;9.124;2024-03-22T08:25:49;43.63;;;23.98;;
45694;SDS011;31408;45.468;9.124;2024-03-22T08:28:14;46.78;;;24.90;;
45694;SDS011;31408;45.468;9.124;2024-03-22T08:30:41;46.97;;;24.20;;
45694;SDS011;31408;45.468;9.124;2024-03-22T08:33:07;49.03;;;24.13;;
45694;SDS011;31408;45.468;9.124;2024-03-22T08:35:32;49.92;;;25.45;;
45694;SDS011;31408;45.468;9.124;2024-03-22T08:37:57;46.50;;;23.10;;
45694;SDS011;31408;45.468;9.124;2024-03-22T08:40:23;48.47;;;24.38;;
45694;SDS011;31408;45.468;9.124;2024-03-22T08:42:49;41.05;;;23.35;;
45694;SDS011;31408;45.468;9.124;2024-03-22T08:45:14;38.97;;;20.85;;
45694;SDS011;31408;45.468;9.124;2024-03-22T08:52:32;41.67;;;22.42;;
45694;SDS011;31408;45.468;9.124;2024-03-22T08:54:59;47.80;;;24.80;;
45694;SDS011;31408;45.468;9.124;2024-03-22T08:57:24;43.55;;;21.42;;
45694;SDS011;31408;45.468;9.124;2024-03-22T08:59:49;47.28;;;24.75;;
45694;SDS011;31408;45.468;9.124;2024-03-22T09:02:15;46.47;;;24.55;;
45694;SDS011;31408;45.468;9.124;2024-03-22T09:04:41;45.22;;;25.95;;
45694;SDS011;31408;45.468;9.124;2024-03-22T09:07:06;48.33;;;26.05;;
45694;SDS011;31408;45.468;9.124;2024-03-22T09:09:32;48.30;;;25.88;;
45694;SDS011;31408;45.468;9.124;2024-03-22T09:11:57;50.63;;;24.60;;
45694;SDS011;31408;45.468;9.124;2024-03-22T09:14:22;47.20;;;25.67;;
45694;SDS011;31408;45.468;9.124;2024-03-22T09:16:48;48.00;;;25.50;;
45694;SDS011;31408;45.468;9.124;2024-03-22T09:19:13;57.55;;;24.75;;
45694;SDS011;31408;45.468;9.124;2024-03-22T09:21:38;42.97;;;22.33;;
45694;SDS011;31408;45.468;9.124;2024-03-22T09:24:03;47.70;;;25.92;;
45694;SDS011;31408;45.468;9.124;2024-03-22T09:26:29;43.83;;;23.35;;
45694;SDS011;31408;45.468;9.124;2024-03-22T09:28:54;47.38;;;25.33;;
45694;SDS011;31408;45.468;9.124;2024-03-22T09:33:45;43.13;;;25.25;;
45694;SDS011;31408;45.468;9.124;2024-03-22T09:36:10;50.40;;;24.60;;
45694;SDS011;31408;45.468;9.124;2024-03-22T09:38:36;60.88;;;23.88;;
45694;SDS011;31408;45.468;9.124;2024-03-22T09:41:01;46.13;;;21.83;;
45694;SDS011;31408;45.468;9.124;2024-03-22T09:43:30;49.78;;;21.15;;
45694;SDS011;31408;45.468;9.124;2024-03-22T09:45:55;41.90;;;21.90;;
45694;SDS011;31408;45.468;9.124;2024-03-22T09:48:21;40.15;;;22.10;;
45694;SDS011;31408;45.468;9.124;2024-03-22T09:50:47;50.72;;;22.58;;
45694;SDS011;31408;45.468;9.124;2024-03-22T09:53:13;47.80;;;26.05;;
45694;SDS011;31408;45.468;9.124;2024-03-22T09:55:38;39.20;;;21.30;;
45694;SDS011;31408;45.468;9.124;2024-03-22T09:58:08;38.75;;;21.23;;
45694;SDS011;31408;45.468;9.124;2024-03-22T10:00:34;51.42;;;27.10;;
45694;SDS011;31408;45.468;9.124;2024-03-22T10:02:59;47.15;;;25.48;;
45694;SDS011;31408;45.468;9.124;2024-03-22T10:05:25;40.92;;;23.00;;
45694;SDS011;31408;45.468;9.124;2024-03-22T10:07:51;45.63;;;22.10;;
45694;SDS011;31408;45.468;9.124;2024-03-22T10:10:16;42.65;;;23.00;;
45694;SDS011;31408;45.468;9.124;2024-03-22T10:12:41;37.47;;;20.10;;
45694;SDS011;31408;45.468;9.124;2024-03-22T10:15:07;42.05;;;22.10;;
45694;SDS011;31408;45.468;9.124;2024-03-22T10:17:37;44.85;;;21.45;;
45694;SDS011;31408;45.468;9.124;2024-03-22T10:20:03;44.95;;;21.02;;
45694;SDS011;31408;45.468;9.124;2024-03-22T10:22:42;39.10;;;21.60;;
45694;SDS011;31408;45.468;9.124;2024-03-22T10:25:07;45.53;;;21.50;;
45694;SDS011;31408;45.468;9.124;2024-03-22T10:27:33;40.78;;;19.33;;
45694;SDS011;31408;45.468;9.124;2024-03-22T10:29:58;38.92;;;19.63;;
45694;SDS011;31408;45.468;9.124;2024-03-22T10:32:23;35.45;;;19.38;;
45694;SDS011;31408;45.468;9.124;2024-03-22T10:34:49;42.13;;;20.75;;
45694;SDS011;31408;45.468;9.124;2024-03-22T10:37:15;41.67;;;23.17;;
45694;SDS011;31408;45.468;9.124;2024-03-22T10:39:41;38.47;;;22.02;;
45694;SDS011;31408;45.468;9.124;2024-03-22T10:42:07;39.10;;;20.15;;
45694;SDS011;31408;45.468;9.124;2024-03-22T10:44:36;40.95;;;20.92;;
45694;SDS011;31408;45.468;9.124;2024-03-22T10:47:02;38.70;;;19.23;;
45694;SDS011;31408;45.468;9.124;2024-03-22T10:49:29;36.72;;;17.10;;
45694;SDS011;31408;45.468;9.124;2024-03-22T10:51:57;38.83;;;18.52;;
45694;SDS011;31408;45.468;9.124;2024-03-22T10:54:29;45.38;;;20.33;;
45694;SDS011;31408;45.468;9.124;2024-03-22T10:56:56;38.60;;;20.88;;
45694;SDS011;31408;45.468;9.124;2024-03-22T10:59:21;46.13;;;24.08;;
45694;SDS011;31408;45.468;9.124;2024-03-22T11:01:47;38.97;;;20.10;;
45694;SDS011;31408;45.468;9.124;2024-03-22T11:04:13;39.00;;;20.70;;
45694;SDS011;31408;45.468;9.124;2024-03-22T11:06:40;42.83;;;21.50;;
45694;SDS011;31408;45.468;9.124;2024-03-22T11:09:05;40.20;;;21.58;;
45694;SDS011;31408;45.468;9.124;2024-03-22T11:11:35;43.30;;;22.85;;
45694;SDS011;31408;45.468;9.124;2024-03-22T11:14:05;40.05;;;19.58;;
45694;SDS011;31408;45.468;9.124;2024-03-22T11:16:30;37.92;;;18.75;;
45694;SDS011;31408;45.468;9.124;2024-03-22T11:18:56;38.95;;;20.52;;
45694;SDS011;31408;45.468;9.124;2024-03-22T11:21:21;38.00;;;20.23;;
45694;SDS011;31408;45.468;9.124;2024-03-22T11:23:46;38.65;;;19.90;;
45694;SDS011;31408;45.468;9.124;2024-03-22T11:26:12;37.60;;;20.08;;
45694;SDS011;31408;45.468;9.124;2024-03-22T11:28:37;37.65;;;20.55;;
45694;SDS011;31408;45.468;9.124;2024-03-22T11:31:03;37.45;;;20.33;;
45694;SDS011;31408;45.468;9.124;2024-03-22T11:33:29;40.33;;;22.20;;
45694;SDS011;31408;45.468;9.124;2024-03-22T11:35:55;39.80;;;19.90;;
45694;SDS011;31408;45.468;9.124;2024-03-22T11:38:20;45.00;;;21.55;;
45694;SDS011;31408;45.468;9.124;2024-03-22T11:40:45;40.10;;;20.20;;
45694;SDS011;31408;45.468;9.124;2024-03-22T11:43:11;34.45;;;17.80;;
45694;SDS011;31408;45.468;9.124;2024-03-22T11:45:39;35.53;;;18.85;;
45694;SDS011;31408;45.468;9.124;2024-03-22T11:48:04;40.38;;;20.70;;
45694;SDS011;31408;45.468;9.124;2024-03-22T11:50:30;33.72;;;18.08;;
45694;SDS011;31408;45.468;9.124;2024-03-22T11:52:55;41.10;;;19.98;;
45694;SDS011;31408;45.468;9.124;2024-03-22T11:55:21;37.67;;;19.40;;
45694;SDS011;31408;45.468;9.124;2024-03-22T11:57:49;37.55;;;18.75;;
45694;SDS011;31408;45.468;9.124;2024-03-22T12:00:15;36.67;;;18.58;;
45694;SDS011;31408;45.468;9.124;2024-03-22T12:02:42;40.10;;;20.65;;
45694;SDS011;31408;45.468;9.124;2024-03-22T12:05:07;35.13;;;18.77;;
45694;SDS011;31408;45.468;9.124;2024-03-22T12:07:33;40.00;;;19.73;;
45694;SDS011;31408;45.468;9.124;2024-03-22T12:09:59;37.75;;;19.30;;
45694;SDS011;31408;45.468;9.124;2024-03-22T12:12:24;37.33;;;19.73;;
45694;SDS011;31408;45.468;9.124;2024-03-22T12:14:49;35.28;;;18.48;;
45694;SDS011;31408;45.468;9.124;2024-03-22T12:17:18;42.55;;;21.70;;
45694;SDS011;31408;45.468;9.124;2024-03-22T12:19:43;35.28;;;19.08;;
45694;SDS011;31408;45.468;9.124;2024-03-22T12:22:09;35.47;;;19.42;;
45694;SDS011;31408;45.468;9.124;2024-03-22T12:24:34;35.90;;;17.60;;
45694;SDS011;31408;45.468;9.124;2024-03-22T12:26:59;32.70;;;15.98;;
45694;SDS011;31408;45.468;9.124;2024-03-22T12:29:24;32.53;;;15.98;;
45694;SDS011;31408;45.468;9.124;2024-03-22T12:31:50;29.38;;;14.00;;
45694;SDS011;31408;45.468;9.124;2024-03-22T12:36:41;27.67;;;13.63;;
45694;SDS011;31408;45.468;9.124;2024-03-22T12:39:07;32.40;;;15.52;;
45694;SDS011;31408;45.468;9.124;2024-03-22T12:46:23;32.10;;;15.97;;
45694;SDS011;31408;45.468;9.124;2024-03-22T12:48:49;37.50;;;18.23;;
45694;SDS011;31408;45.468;9.124;2024-03-22T12:51:14;40.55;;;18.77;;
45694;SDS011;31408;45.468;9.124;2024-03-22T12:53:40;36.92;;;16.55;;
45694;SDS011;31408;45.468;9.124;2024-03-22T12:56:05;36.95;;;18.35;;
45694;SDS011;31408;45.468;9.124;2024-03-22T12:58:30;37.38;;;18.40;;
45694;SDS011;31408;45.468;9.124;2024-03-22T13:00:56;38.53;;;22.00;;
45694;SDS011;31408;45.468;9.124;2024-03-22T13:03:21;36.92;;;18.40;;
45694;SDS011;31408;45.468;9.124;2024-03-22T13:05:47;40.28;;;20.17;;
45694;SDS011;31408;45.468;9.124;2024-03-22T13:08:12;39.17;;;20.52;;
45694;SDS011;31408;45.468;9.124;2024-03-22T13:10:37;42.70;;;20.65;;
45694;SDS011;31408;45.468;9.124;2024-03-22T13:13:04;44.88;;;20.50;;
45694;SDS011;31408;45.468;9.124;2024-03-22T13:15:30;38.58;;;18.95;;
45694;SDS011;31408;45.468;9.124;2024-03-22T13:17:57;39.75;;;19.35;;
45694;SDS011;31408;45.468;9.124;2024-03-22T13:20:22;34.88;;;18.98;;
45694;SDS011;31408;45.468;9.124;2024-03-22T13:22:48;39.83;;;19.10;;
45694;SDS011;31408;45.468;9.124;2024-03-22T13:25:13;36.17;;;18.23;;
45694;SDS011;31408;45.468;9.124;2024-03-22T13:27:38;36.17;;;18.70;;
45694;SDS011;31408;45.468;9.124;2024-03-22T13:30:07;35.88;;;17.33;;
45694;SDS011;31408;45.468;9.124;2024-03-22T13:32:36;35.72;;;17.38;;
45694;SDS011;31408;45.468;9.124;2024-03-22T13:35:01;35.60;;;16.50;;
45694;SDS011;31408;45.468;9.124;2024-03-22T13:37:26;32.92;;;14.75;;
45694;SDS011;31408;45.468;9.124;2024-03-22T13:39:51;31.15;;;15.35;;
45694;SDS011;31408;45.468;9.124;2024-03-22T13:42:17;34.90;;;15.20;;
45694;SDS011;31408;45.468;9.124;2024-03-22T13:44:42;48.22;;;18.00;;
45694;SDS011;31408;45.468;9.124;2024-03-22T13:47:08;42.20;;;18.35;;
45694;SDS011;31408;45.468;9.124;2024-03-22T13:49:33;36.65;;;16.52;;
45694;SDS011;31408;45.468;9.124;2024-03-22T13:51:59;32.08;;;16.58;;
45694;SDS011;31408;45.468;9.124;2024-03-22T13:54:24;40.80;;;18.88;;
45694;SDS011;31408;45.468;9.124;2024-03-22T13:56:49;35.03;;;17.17;;
45694;SDS011;31408;45.468;9.124;2024-03-22T13:59:15;36.05;;;17.23;;
45694;SDS011;31408;45.468;9.124;2024-03-22T14:01:41;36.65;;;18.42;;
45694;SDS011;31408;45.468;9.124;2024-03-22T14:04:07;40.30;;;21.63;;
45694;SDS011;31408;45.468;9.124;2024-03-22T14:06:33;40.67;;;20.83;;
45694;SDS011;31408;45.468;9.124;2024-03-22T14:08:58;38.78;;;19.65;;
45694;SDS011;31408;45.468;9.124;2024-03-22T14:13:52;38.50;;;18.95;;
45694;SDS011;31408;45.468;9.124;2024-03-22T14:16:17;38.67;;;20.58;;
45694;SDS011;31408;45.468;9.124;2024-03-22T14:18:43;45.85;;;22.27;;
45694;SDS011;31408;45.468;9.124;2024-03-22T14:21:08;39.38;;;21.27;;
45694;SDS011;31408;45.468;9.124;2024-03-22T14:23:33;47.40;;;20.77;;
45694;SDS011;31408;45.468;9.124;2024-03-22T14:25:59;45.70;;;21.33;;
45694;SDS011;31408;45.468;9.124;2024-03-22T14:28:24;42.95;;;21.45;;